createdAt,value
2019-05-18T00:01:48.704Z,12.15
2019-05-18T00:04:18.943Z,12.18
2019-05-18T00:06:49.115Z,12.12
2019-05-18T00:09:19.300Z,12.00
2019-05-18T00:11:49.529Z,12.01
2019-05-18T00:14:19.708Z,12.01
2019-05-18T00:16:51.774Z,12.03
2019-05-18T00:19:21.987Z,12.04
2019-05-18T00:21:52.376Z,12.06
2019-05-18T00:24:22.543Z,12.05
2019-05-18T00:26:53.791Z,12.07
2019-05-18T00:29:23.940Z,12.00
2019-05-18T00:31:54.185Z,11.94
2019-05-18T00:34:25.517Z,11.88
2019-05-18T00:36:55.735Z,11.91
2019-05-18T00:39:25.881Z,11.86
2019-05-18T00:41:56.091Z,11.88
2019-05-18T00:44:26.273Z,11.87
2019-05-18T00:46:56.438Z,11.89
2019-05-18T00:49:27.198Z,11.92
2019-05-18T00:51:57.581Z,11.92
2019-05-18T00:54:27.726Z,11.88
2019-05-18T00:56:57.936Z,11.82
2019-05-18T00:59:28.164Z,11.79
2019-05-18T01:01:58.256Z,11.80
2019-05-18T01:04:28.530Z,11.82
2019-05-18T01:06:58.649Z,11.83
2019-05-18T01:09:29.023Z,11.84
2019-05-18T01:11:59.152Z,11.85
2019-05-18T01:14:29.521Z,11.86
2019-05-18T01:16:59.721Z,11.87
2019-05-18T01:19:31.510Z,11.80
2019-05-18T01:22:01.666Z,11.73
2019-05-18T01:24:36.436Z,11.71
2019-05-18T01:27:06.869Z,11.69
2019-05-18T01:29:37.151Z,11.70
2019-05-18T01:32:07.336Z,11.72
2019-05-18T01:34:37.597Z,11.69
2019-05-18T01:37:07.970Z,11.56
2019-05-18T01:39:38.128Z,11.50
2019-05-18T01:42:08.255Z,11.45
2019-05-18T01:44:38.611Z,11.47
2019-05-18T01:47:08.785Z,11.48
2019-05-18T01:49:39.005Z,11.48
2019-05-18T01:52:09.281Z,11.46
2019-05-18T01:54:39.460Z,11.36
2019-05-18T01:57:09.600Z,11.35
2019-05-18T01:59:42.098Z,11.30
2019-05-18T02:02:14.942Z,11.26
2019-05-18T02:04:45.158Z,11.18
2019-05-18T02:07:15.250Z,11.06
2019-05-18T02:09:45.486Z,11.02
2019-05-18T02:12:15.628Z,10.97
2019-05-18T02:14:47.530Z,10.94
2019-05-18T02:17:17.707Z,10.88
2019-05-18T02:19:47.979Z,10.80
2019-05-18T02:22:18.190Z,10.77
2019-05-18T02:24:48.359Z,10.75
2019-05-18T02:27:18.580Z,10.75
2019-05-18T02:29:48.791Z,10.74
2019-05-18T02:32:19.147Z,10.71
2019-05-18T02:34:49.271Z,10.57
2019-05-18T02:37:19.477Z,10.52
2019-05-18T02:39:52.281Z,10.50
2019-05-18T02:42:23.068Z,10.49
2019-05-18T02:44:54.305Z,10.38
2019-05-18T02:47:24.484Z,10.35
2019-05-18T02:49:54.636Z,10.34
2019-05-18T02:52:24.784Z,10.34
2019-05-18T02:54:54.919Z,10.31
2019-05-18T02:57:25.131Z,10.26
2019-05-18T02:59:55.295Z,10.16
2019-05-18T03:02:25.392Z,10.07
2019-05-18T03:04:56.667Z,10.04
2019-05-18T03:07:26.896Z,10.00
2019-05-18T03:09:57.193Z,10.00
2019-05-18T03:12:27.306Z,9.98
2019-05-18T03:14:57.531Z,9.91
2019-05-18T03:17:27.637Z,9.63
2019-05-18T03:19:57.795Z,9.65
2019-05-18T03:22:29.691Z,9.63
2019-05-18T03:24:59.897Z,9.65
2019-05-18T03:27:30.130Z,9.61
2019-05-18T03:30:00.300Z,9.63
2019-05-18T03:32:30.497Z,9.60
2019-05-18T03:35:00.937Z,9.57
2019-05-18T03:37:31.054Z,9.56
2019-05-18T03:40:01.533Z,9.54
2019-05-18T03:42:31.775Z,9.48
2019-05-18T03:45:03.682Z,9.44
2019-05-18T03:47:33.794Z,9.44
2019-05-18T03:50:04.346Z,9.28
2019-05-18T04:00:23.619Z,9.18
2019-05-18T04:02:53.714Z,9.16
2019-05-18T04:05:24.112Z,9.13
2019-05-18T04:07:54.284Z,8.86
2019-05-18T04:10:28.620Z,8.83
2019-05-18T04:12:59.022Z,8.82
2019-05-18T04:15:29.621Z,8.83
2019-05-18T04:17:59.737Z,8.88
2019-05-18T04:20:29.886Z,8.85
2019-05-18T04:23:00.132Z,8.77
2019-05-18T04:25:30.389Z,8.77
2019-05-18T04:28:00.514Z,8.84
2019-05-18T04:30:30.693Z,8.92
2019-05-18T04:33:02.511Z,9.00
2019-05-18T04:35:34.521Z,9.11
2019-05-18T04:38:04.824Z,9.13
2019-05-18T04:40:35.188Z,9.19
2019-05-18T04:43:05.297Z,9.21
2019-05-18T04:45:35.485Z,9.37
2019-05-18T04:48:05.650Z,9.37
2019-05-18T04:50:35.956Z,9.57
2019-05-18T04:53:06.072Z,9.74
2019-05-18T04:55:36.425Z,9.94
2019-05-18T04:58:06.574Z,10.11
2019-05-18T05:00:36.885Z,10.22
2019-05-18T05:03:06.991Z,10.35
2019-05-18T05:05:37.211Z,10.47
2019-05-18T05:08:07.490Z,10.73
2019-05-18T05:10:37.716Z,11.06
2019-05-18T05:13:09.162Z,11.39
2019-05-18T05:15:39.755Z,11.73
2019-05-18T05:18:10.131Z,12.16
2019-05-18T05:20:40.400Z,12.48
2019-05-18T05:23:10.622Z,12.90
2019-05-18T05:25:40.782Z,13.26
2019-05-18T05:28:10.937Z,13.60
2019-05-18T05:30:41.191Z,13.96
2019-05-18T05:33:11.401Z,14.27
2019-05-18T05:35:41.569Z,14.53
2019-05-18T05:38:11.715Z,14.74
2019-05-18T05:40:43.263Z,15.30
2019-05-18T05:43:13.484Z,15.30
2019-05-18T05:45:44.716Z,15.57
2019-05-18T05:48:14.829Z,15.82
2019-05-18T05:50:45.407Z,15.64
2019-05-18T05:53:17.979Z,15.52
2019-05-18T05:55:48.230Z,15.24
2019-05-18T05:58:18.589Z,15.18
2019-05-18T06:00:48.770Z,15.29
2019-05-18T06:03:18.965Z,15.71
2019-05-18T06:05:51.099Z,15.83
2019-05-18T06:08:21.344Z,15.88
2019-05-18T06:10:52.059Z,16.15
2019-05-18T06:13:22.288Z,16.54
2019-05-18T06:15:52.545Z,16.88
2019-05-18T06:18:22.730Z,16.75
2019-05-18T06:20:52.888Z,17.05
2019-05-18T06:23:23.251Z,17.23
2019-05-18T06:25:53.496Z,17.67
2019-05-18T06:28:23.721Z,17.56
2019-05-18T06:30:54.041Z,18.02
2019-05-18T06:33:24.206Z,18.33
2019-05-18T06:35:54.332Z,18.22
2019-05-18T06:38:24.972Z,18.14
2019-05-18T06:40:55.555Z,19.09
2019-05-18T06:43:27.297Z,19.76
2019-05-18T06:46:00.625Z,19.55
2019-05-18T06:48:31.193Z,19.70
2019-05-18T06:51:07.351Z,20.31
2019-05-18T06:53:33.520Z,20.78
2019-05-18T06:56:04.562Z,21.38
2019-05-18T06:58:37.737Z,21.23
2019-05-18T07:01:08.132Z,21.63
2019-05-18T07:03:38.570Z,21.89
2019-05-18T07:06:09.146Z,22.03
2019-05-18T07:08:41.784Z,22.56
2019-05-18T07:11:12.291Z,22.42
2019-05-18T07:13:42.677Z,22.53
2019-05-18T07:16:12.909Z,22.39
2019-05-18T07:18:43.338Z,21.63
2019-05-18T07:21:21.867Z,21.49
2019-05-18T07:23:46.441Z,21.77
2019-05-18T07:26:19.095Z,22.16
2019-05-18T07:28:49.605Z,21.52
2019-05-18T07:31:19.989Z,22.27
2019-05-18T07:33:50.191Z,23.39
2019-05-18T07:36:20.504Z,23.34
2019-05-18T07:38:50.896Z,23.79
2019-05-18T07:41:21.494Z,23.48
2019-05-18T07:43:52.065Z,23.06
2019-05-18T07:46:22.457Z,22.95
2019-05-18T07:48:52.992Z,22.76
2019-05-18T07:51:36.351Z,21.98
2019-05-18T07:53:56.536Z,22.19
2019-05-18T07:56:26.966Z,23.10
2019-05-18T07:58:57.226Z,24.38
2019-05-18T08:01:27.595Z,25.05
2019-05-18T08:03:58.437Z,26.41
2019-05-18T08:06:30.236Z,26.99
2019-05-18T08:09:00.726Z,27.51
2019-05-18T08:11:31.276Z,27.83
2019-05-18T08:14:02.382Z,28.14
2019-05-18T08:16:32.786Z,28.07
2019-05-18T08:19:04.377Z,28.14
2019-05-18T08:21:50.675Z,28.27
2019-05-18T08:24:11.514Z,28.47
2019-05-18T08:26:42.021Z,28.95
2019-05-18T08:29:15.115Z,29.97
2019-05-18T08:31:45.781Z,29.59
2019-05-18T08:34:16.270Z,29.67
2019-05-18T08:36:46.652Z,29.93
2019-05-18T08:39:17.289Z,30.17
2019-05-18T08:41:48.819Z,29.96
2019-05-18T08:44:19.965Z,30.43
2019-05-18T08:46:50.610Z,30.59
2019-05-18T08:49:23.059Z,30.97
2019-05-18T08:52:07.518Z,31.29
2019-05-18T08:54:25.952Z,31.70
2019-05-18T08:56:56.629Z,31.36
2019-05-18T08:59:27.125Z,32.26
2019-05-18T09:01:57.677Z,32.79
2019-05-18T09:04:28.121Z,33.02
2019-05-18T09:06:58.759Z,33.06
2019-05-18T09:09:29.096Z,33.07
2019-05-18T09:11:59.427Z,33.25
2019-05-18T09:21:43.272Z,33.14
2019-05-18T09:24:14.377Z,33.88
2019-05-18T09:26:44.947Z,34.11
2019-05-18T09:29:15.117Z,33.99
2019-05-18T09:31:45.313Z,34.18
2019-05-18T09:34:15.670Z,34.31
2019-05-18T09:36:46.317Z,34.80
2019-05-18T09:39:18.383Z,34.55
2019-05-18T09:41:48.715Z,34.46
2019-05-18T09:44:19.137Z,33.77
2019-05-18T09:46:50.431Z,34.03
2019-05-18T09:49:20.966Z,34.85
2019-05-18T09:51:51.487Z,34.15
2019-05-18T09:54:21.803Z,33.58
2019-05-18T09:56:55.726Z,32.89
2019-05-18T09:59:26.148Z,32.27
2019-05-18T10:01:56.309Z,32.26
2019-05-18T10:04:26.458Z,32.34
2019-05-18T10:06:56.853Z,32.67
2019-05-18T10:09:37.015Z,33.34
2019-05-18T10:11:59.537Z,33.42
2019-05-18T10:14:30.050Z,33.84
2019-05-18T10:17:00.612Z,33.75
2019-05-18T10:19:31.255Z,33.62
2019-05-18T10:22:01.698Z,34.34
2019-05-18T10:24:32.019Z,34.10
2019-05-18T10:27:02.195Z,34.48
2019-05-18T10:29:32.443Z,34.53
2019-05-18T10:32:02.786Z,34.46
2019-05-18T10:34:33.024Z,34.77
2019-05-18T10:37:03.244Z,35.43
2019-05-18T10:39:38.737Z,35.56
2019-05-18T10:42:08.197Z,36.18
2019-05-18T10:44:38.441Z,35.70
2019-05-18T10:47:08.608Z,34.49
2019-05-18T10:49:40.611Z,36.02
2019-05-18T10:52:11.127Z,36.35
2019-05-18T10:54:41.417Z,36.97
2019-05-18T10:57:11.634Z,37.26
2019-05-18T10:59:42.155Z,37.74
2019-05-18T11:02:12.497Z,36.15
2019-05-18T11:04:42.992Z,36.96
2019-05-18T11:07:13.321Z,38.25
2019-05-18T11:09:43.485Z,38.30
2019-05-18T11:12:17.201Z,38.42
2019-05-18T11:14:47.517Z,37.53
2019-05-18T11:17:17.735Z,38.00
2019-05-18T11:19:48.910Z,35.72
2019-05-18T11:22:19.163Z,33.62
2019-05-18T11:24:49.967Z,33.54
2019-05-18T11:27:20.313Z,34.15
2019-05-18T11:29:53.859Z,35.49
2019-05-18T11:32:24.035Z,33.80
2019-05-18T11:34:55.416Z,32.98
2019-05-18T11:37:26.080Z,34.01
2019-05-18T11:39:57.174Z,34.74
2019-05-18T11:42:27.568Z,35.56
2019-05-18T11:44:57.862Z,34.98
2019-05-18T11:47:28.168Z,35.55
2019-05-18T11:50:01.323Z,36.70
2019-05-18T11:52:31.670Z,36.85
2019-05-18T11:55:02.114Z,37.68
2019-05-18T11:57:32.702Z,38.28
2019-05-18T12:00:03.077Z,37.37
2019-05-18T12:02:33.332Z,36.48
2019-05-18T12:05:03.822Z,35.95
2019-05-18T12:07:34.329Z,35.56
2019-05-18T12:10:05.368Z,36.39
2019-05-18T12:12:35.742Z,37.18
2019-05-18T12:15:06.875Z,37.12
2019-05-18T12:17:37.505Z,36.99
2019-05-18T12:20:09.225Z,36.41
2019-05-18T12:22:40.214Z,36.54
2019-05-18T12:25:10.792Z,37.53
2019-05-18T12:27:42.005Z,37.06
2019-05-18T12:30:13.245Z,36.15
2019-05-18T12:32:44.162Z,35.78
2019-05-18T12:35:15.607Z,35.16
2019-05-18T12:37:46.587Z,35.67
2019-05-18T12:40:20.838Z,34.67
2019-05-18T12:42:51.200Z,33.45
2019-05-18T12:45:21.991Z,33.63
2019-05-18T12:47:53.151Z,33.95
2019-05-18T12:50:24.232Z,33.60
2019-05-18T12:52:55.018Z,33.53
2019-05-18T12:55:27.556Z,32.79
2019-05-18T12:57:58.530Z,32.29
2019-05-18T13:00:29.361Z,32.59
2019-05-18T13:02:59.839Z,33.70
2019-05-18T13:05:37.055Z,32.38
2019-05-18T13:08:08.265Z,32.77
2019-05-18T13:10:38.880Z,32.53
2019-05-18T13:13:09.725Z,31.97
2019-05-18T13:15:40.117Z,32.18
2019-05-18T13:18:10.511Z,31.47
2019-05-18T13:20:41.466Z,31.46
2019-05-18T13:23:12.475Z,30.67
2019-05-18T13:25:46.849Z,28.77
2019-05-18T13:28:17.715Z,25.13
2019-05-18T13:30:48.622Z,22.73
2019-05-18T13:33:20.729Z,22.08
2019-05-18T13:35:53.061Z,21.22
2019-05-18T13:38:24.076Z,20.33
2019-05-18T13:40:54.663Z,20.63
2019-05-18T13:43:25.451Z,18.73
2019-05-18T13:45:56.070Z,18.98
2019-05-18T13:48:26.875Z,20.44
2019-05-18T13:50:57.526Z,20.09
2019-05-18T13:53:27.771Z,19.94
2019-05-18T13:55:58.364Z,19.84
2019-05-18T13:58:28.863Z,19.74
2019-05-18T14:00:59.185Z,18.85
2019-05-18T14:03:30.949Z,18.85
2019-05-18T14:06:01.393Z,18.88
2019-05-18T14:08:31.778Z,19.29
2019-05-18T14:11:02.000Z,19.11
2019-05-18T14:13:32.603Z,18.60
2019-05-18T14:16:03.291Z,19.14
2019-05-18T14:18:33.694Z,18.96
2019-05-18T14:21:07.223Z,19.07
2019-05-18T14:23:37.739Z,18.98
2019-05-18T14:26:08.235Z,18.58
2019-05-18T14:28:38.717Z,18.35
2019-05-18T14:31:09.258Z,18.61
2019-05-18T14:33:39.791Z,18.88
2019-05-18T14:36:11.454Z,18.86
2019-05-18T14:38:41.808Z,18.44
2019-05-18T14:41:13.168Z,17.87
2019-05-18T14:43:43.889Z,17.88
2019-05-18T14:46:14.359Z,18.36
2019-05-18T14:48:44.922Z,18.29
2019-05-18T14:51:15.549Z,18.24
2019-05-18T14:53:46.171Z,18.45
2019-05-18T14:56:16.472Z,18.61
2019-05-18T14:58:47.929Z,18.28
2019-05-18T15:01:18.479Z,18.00
2019-05-18T15:03:49.048Z,18.26
2019-05-18T15:06:19.458Z,18.04
2019-05-18T15:08:54.120Z,18.11
2019-05-18T15:11:24.318Z,17.53
2019-05-18T15:13:58.087Z,17.88
2019-05-18T15:16:28.405Z,17.37
2019-05-18T15:18:58.874Z,17.62
2019-05-18T15:21:29.035Z,17.81
2019-05-18T15:23:59.712Z,18.12
2019-05-18T15:26:30.204Z,18.31
2019-05-18T15:29:00.415Z,18.43
2019-05-18T15:31:30.625Z,18.51
2019-05-18T15:34:00.983Z,18.41
2019-05-18T15:36:31.329Z,18.52
2019-05-18T15:39:01.945Z,18.60
2019-05-18T15:41:34.160Z,18.49
2019-05-18T15:44:08.109Z,17.88
2019-05-18T15:46:38.550Z,17.83
2019-05-18T15:49:09.115Z,17.95
2019-05-18T15:51:39.618Z,17.90
2019-05-18T15:54:12.465Z,18.29
2019-05-18T15:56:44.299Z,18.07
2019-05-18T15:59:14.712Z,17.64
2019-05-18T16:01:44.982Z,17.77
2019-05-18T16:04:15.395Z,18.05
2019-05-18T16:06:45.992Z,17.88
2019-05-18T16:09:16.313Z,18.06
2019-05-18T16:11:46.478Z,18.06
2019-05-18T16:14:17.330Z,18.28
2019-05-18T16:16:47.923Z,18.17
2019-05-18T16:19:18.947Z,18.29
2019-05-18T16:21:49.353Z,18.45
2019-05-18T16:24:19.762Z,18.57
2019-05-18T16:26:50.070Z,18.66
2019-05-18T16:29:20.770Z,18.67
2019-05-18T16:31:51.112Z,18.65
2019-05-18T16:34:21.449Z,18.63
2019-05-18T16:36:51.680Z,18.67
2019-05-18T16:39:24.034Z,18.66
2019-05-18T16:41:54.778Z,18.62
2019-05-18T16:44:25.050Z,18.54
2019-05-18T16:46:55.382Z,18.40
2019-05-18T16:49:25.628Z,18.46
2019-05-18T16:51:56.315Z,18.46
2019-05-18T16:54:26.661Z,18.45
2019-05-18T16:56:57.003Z,18.42
2019-05-18T16:59:27.358Z,18.45
2019-05-18T17:01:58.340Z,18.39
2019-05-18T17:04:28.708Z,17.76
2019-05-18T17:06:59.282Z,17.71
2019-05-18T17:09:29.751Z,17.56
2019-05-18T17:12:00.348Z,17.52
2019-05-18T17:14:31.156Z,17.59
2019-05-18T17:17:01.509Z,17.45
2019-05-18T17:19:32.469Z,17.39
2019-05-18T17:22:03.034Z,17.31
2019-05-18T17:24:33.792Z,17.41
2019-05-18T17:27:05.171Z,17.32
2019-05-18T17:29:35.585Z,17.36
2019-05-18T17:32:06.133Z,17.42
2019-05-18T17:34:36.769Z,17.33
2019-05-18T17:37:07.265Z,17.38
2019-05-18T17:39:37.752Z,17.41
2019-05-18T17:42:08.101Z,17.46
2019-05-18T17:44:38.335Z,17.44
2019-05-18T17:47:08.867Z,17.40
2019-05-18T17:49:40.054Z,17.34
2019-05-18T17:52:10.297Z,17.30
2019-05-18T17:54:40.733Z,17.26
2019-05-18T17:57:11.182Z,17.23
2019-05-18T17:59:41.387Z,17.22
2019-05-18T18:02:11.644Z,17.20
2019-05-18T18:04:42.074Z,17.10
2019-05-18T18:07:12.345Z,17.01
2019-05-18T18:09:42.471Z,16.86
2019-05-18T18:12:12.807Z,16.59
2019-05-18T18:14:43.356Z,16.39
2019-05-18T18:17:17.791Z,16.26
2019-05-18T18:19:48.687Z,16.29
2019-05-18T18:22:19.161Z,16.33
2019-05-18T18:24:49.599Z,16.38
2019-05-18T18:27:25.286Z,16.09
2019-05-18T18:29:52.210Z,16.01
2019-05-18T18:32:22.832Z,16.02
2019-05-18T18:34:53.424Z,16.02
2019-05-18T18:37:25.312Z,15.89
2019-05-18T18:39:55.804Z,15.72
2019-05-18T18:42:26.706Z,15.72
2019-05-18T18:44:57.454Z,15.70
2019-05-18T18:47:30.756Z,15.63
2019-05-18T18:50:01.424Z,15.58
2019-05-18T18:52:33.421Z,15.57
2019-05-18T18:55:04.138Z,15.49
2019-05-18T18:57:41.100Z,15.50
2019-05-18T19:00:07.127Z,15.36
2019-05-18T19:02:38.274Z,15.24
2019-05-18T19:05:08.888Z,15.23
2019-05-18T19:07:39.460Z,15.20
2019-05-18T19:10:10.842Z,15.11
2019-05-18T19:12:41.625Z,15.12
2019-05-18T19:15:12.054Z,15.07
2019-05-18T19:17:42.711Z,15.03
2019-05-18T19:20:13.603Z,14.95
2019-05-18T19:22:45.419Z,14.88
2019-05-18T19:25:16.245Z,14.76
2019-05-18T19:27:54.530Z,14.64
2019-05-18T19:30:19.834Z,14.62
2019-05-18T19:32:50.427Z,14.47
2019-05-18T19:35:21.238Z,14.51
2019-05-18T19:37:51.870Z,14.51
2019-05-18T19:40:22.867Z,14.52
2019-05-18T19:42:53.633Z,14.50
2019-05-18T19:45:24.125Z,14.42
2019-05-18T19:47:55.007Z,14.25
2019-05-18T19:50:26.179Z,14.24
2019-05-18T19:52:56.997Z,14.17
2019-05-18T19:55:28.079Z,14.13
2019-05-18T19:58:08.442Z,14.14
2019-05-18T20:00:33.877Z,14.13
2019-05-18T20:03:05.043Z,14.06
2019-05-18T20:05:36.312Z,14.02
2019-05-18T20:08:09.228Z,13.99
2019-05-18T20:10:41.250Z,13.96
2019-05-18T20:13:11.888Z,13.60
2019-05-18T20:15:43.835Z,13.55
2019-05-18T20:18:14.425Z,13.74
2019-05-18T20:20:45.196Z,13.74
2019-05-18T20:23:15.736Z,13.74
2019-05-18T20:25:46.619Z,13.74
2019-05-18T20:28:23.785Z,13.71
2019-05-18T20:30:50.163Z,13.68
2019-05-18T20:33:21.335Z,13.56
2019-05-18T20:35:52.047Z,13.51
2019-05-18T20:38:22.773Z,13.47
2019-05-18T20:40:53.618Z,13.29
2019-05-18T20:43:24.394Z,13.16
2019-05-18T20:45:55.103Z,13.14
2019-05-18T20:48:26.381Z,13.11
2019-05-18T20:50:57.203Z,12.92
2019-05-18T20:53:27.690Z,12.96
2019-05-18T20:55:58.369Z,12.92
2019-05-18T20:58:39.294Z,12.91
2019-05-18T21:01:02.061Z,12.87
2019-05-18T21:03:33.129Z,12.86
2019-05-18T21:06:04.109Z,12.78
2019-05-18T21:08:34.571Z,12.77
2019-05-18T21:11:05.273Z,12.73
2019-05-18T21:13:36.049Z,12.71
2019-05-18T21:16:07.005Z,12.71
2019-05-18T21:18:37.604Z,12.76
2019-05-18T21:21:08.409Z,12.71
2019-05-18T21:23:39.743Z,12.73
2019-05-18T21:26:11.027Z,12.82
2019-05-18T21:28:54.821Z,12.82
2019-05-18T21:31:14.355Z,12.88
2019-05-18T21:33:46.393Z,12.94
2019-05-18T21:36:17.397Z,12.94
2019-05-18T21:38:48.110Z,12.95
2019-05-18T21:41:19.613Z,12.95
2019-05-18T21:43:50.239Z,12.97
2019-05-18T21:46:21.570Z,12.94
2019-05-18T21:48:52.221Z,12.77
2019-05-18T21:51:25.847Z,12.85
2019-05-18T21:54:00.047Z,12.83
2019-05-18T21:56:30.698Z,12.87
2019-05-18T21:59:12.127Z,12.89
2019-05-18T22:01:41.008Z,12.91
2019-05-18T22:04:11.314Z,12.90
2019-05-18T22:06:41.705Z,12.86
2019-05-18T22:09:11.935Z,12.78
2019-05-18T22:11:42.187Z,12.79
2019-05-18T22:14:12.815Z,12.78
2019-05-18T22:16:43.252Z,12.78
2019-05-18T22:19:13.708Z,12.85
2019-05-18T22:21:44.277Z,12.85
2019-05-18T22:24:14.634Z,12.88
2019-05-18T22:26:45.086Z,12.93
2019-05-18T22:29:15.380Z,12.98
2019-05-18T22:31:45.552Z,12.89
2019-05-18T22:34:15.911Z,12.82
2019-05-18T22:36:46.068Z,12.88
2019-05-18T22:39:17.903Z,12.80
2019-05-18T22:41:48.181Z,12.75
2019-05-18T22:44:18.453Z,12.69
2019-05-18T22:46:48.733Z,12.73
2019-05-18T22:49:19.449Z,12.74
2019-05-18T22:51:49.822Z,12.53
2019-05-18T22:54:20.204Z,12.63
2019-05-18T22:56:50.493Z,12.64
2019-05-18T22:59:21.460Z,12.64
2019-05-18T23:01:51.747Z,12.58
2019-05-18T23:04:21.974Z,12.54
2019-05-18T23:06:52.235Z,12.55
2019-05-18T23:09:22.547Z,12.60
2019-05-18T23:11:53.118Z,12.60
2019-05-18T23:14:23.509Z,12.53
2019-05-18T23:16:56.514Z,12.51
2019-05-18T23:19:26.715Z,12.54
2019-05-18T23:21:57.284Z,12.55
2019-05-18T23:24:27.541Z,12.57
2019-05-18T23:26:57.806Z,12.60
2019-05-18T23:29:28.521Z,12.59
2019-05-18T23:31:58.857Z,12.55
2019-05-18T23:34:29.435Z,12.53
2019-05-18T23:37:00.120Z,12.53
2019-05-18T23:39:30.341Z,12.47
2019-05-18T23:42:00.700Z,12.48
2019-05-18T23:44:31.064Z,12.49
2019-05-18T23:47:01.264Z,12.42
2019-05-18T23:49:31.473Z,12.37
2019-05-18T23:52:01.749Z,12.27
2019-05-18T23:54:32.407Z,12.26
2019-05-18T23:57:02.756Z,12.24
2019-05-18T23:59:35.884Z,12.24
